Time;durP1;ratioP1;P1;durP2;ratioP2;P2;SDS_P1;SDS_P2;PMS_P1;PMS_P2;Temp;Humidity;BMP_temperature;BMP_pressure;BME280_temperature;BME280_humidity;BME280_pressure;Samples;Min_cycle;Max_cycle;Signal;HPM_P1;HPM_P2
2023/04/07 00:01:13;;;;;;;10.40;8.97;;;;;;;6.53;nan;98116.97;5033340;28;20232;-76
2023/04/07 00:03:40;;;;;;;9.90;8.90;;;;;;;6.52;nan;98120.63;5033391;28;20244;-76
2023/04/07 00:06:07;;;;;;;9.30;8.37;;;;;;;6.58;nan;98115.41;5033378;28;20293;-76
2023/04/07 00:08:33;;;;;;;9.77;8.60;;;;;;;6.51;nan;98119.00;5033357;28;20579;-76
2023/04/07 00:11:00;;;;;;;10.63;8.90;;;;;;;6.46;nan;98111.66;5033320;28;20220;-75
2023/04/07 00:13:26;;;;;;;9.53;8.57;;;;;;;6.49;nan;98110.44;5032963;28;20709;-76
2023/04/07 00:15:53;;;;;;;10.60;8.90;;;;;;;6.45;nan;98103.91;5033277;28;20214;-76
2023/04/07 00:18:19;;;;;;;11.07;9.20;;;;;;;6.45;nan;98111.84;5033219;28;20255;-76
2023/04/07 00:20:45;;;;;;;10.20;8.40;;;;;;;6.48;nan;98098.25;5033263;28;20210;-76
2023/04/07 00:23:12;;;;;;;8.83;7.93;;;;;;;6.47;nan;98100.06;5033089;28;20252;-76
2023/04/07 00:25:38;;;;;;;9.67;8.60;;;;;;;6.42;nan;98099.81;5033148;28;20208;-76
2023/04/07 00:28:04;;;;;;;9.47;8.53;;;;;;;6.41;nan;98092.09;5036701;28;20206;-76
2023/04/07 00:30:31;;;;;;;10.20;9.27;;;;;;;6.41;nan;98081.53;5037061;28;20206;-76
2023/04/07 00:32:57;;;;;;;9.63;8.63;;;;;;;6.41;nan;98081.53;5036716;28;20309;-76
2023/04/07 00:35:23;;;;;;;10.63;8.27;;;;;;;6.42;nan;98085.84;5037017;28;20206;-76
2023/04/07 00:37:50;;;;;;;9.53;8.43;;;;;;;6.41;nan;98082.34;5036697;28;20737;-76
2023/04/07 00:40:17;;;;;;;9.40;8.50;;;;;;;6.46;nan;98073.84;5036908;28;20212;-76
2023/04/07 00:42:43;;;;;;;8.20;7.40;;;;;;;6.45;nan;98074.88;5036737;28;20229;-76
2023/04/07 00:45:11;;;;;;;8.43;7.27;;;;;;;6.41;nan;98070.97;5036730;28;20217;-76
2023/04/07 00:47:38;;;;;;;8.43;7.47;;;;;;;6.41;nan;98076.25;5037621;28;20551;-76
2023/04/07 00:50:05;;;;;;;8.30;7.50;;;;;;;6.40;nan;98074.63;5036541;28;20206;-76
2023/04/07 00:52:33;;;;;;;8.97;7.70;;;;;;;6.44;nan;98071.41;5036286;28;20317;-76
2023/04/07 00:55:00;;;;;;;7.47;6.77;;;;;;;6.51;nan;98066.19;5036648;28;20206;-76
2023/04/07 00:57:26;;;;;;;9.23;7.53;;;;;;;6.45;nan;98061.66;5036634;28;20216;-76
2023/04/07 00:59:53;;;;;;;7.90;7.10;;;;;;;6.50;nan;98053.97;5037115;28;20216;-76
2023/04/07 01:02:49;;;;;;;9.03;7.60;;;;;;;6.37;nan;98048.59;5018384;28;20735;-76
2023/04/07 01:05:35;;;;;;;7.87;7.17;;;;;;;6.39;nan;98039.50;5025817;28;20218;-76
2023/04/07 01:08:49;;;;;;;10.67;8.23;;;;;;;6.34;nan;98038.44;5036448;28;20561;-76
2023/04/07 01:11:41;;;;;;;9.07;7.93;;;;;;;6.40;nan;98033.22;4955932;29;20216;-76
2023/04/07 01:14:11;;;;;;;9.43;7.37;;;;;;;6.51;nan;98034.50;4955873;28;20607;-76
2023/04/07 01:16:46;;;;;;;8.83;7.60;;;;;;;6.37;nan;98032.75;5014377;28;20206;-76
2023/04/07 01:19:34;;;;;;;8.77;7.87;;;;;;;6.50;nan;98032.84;5036180;28;20193;-76
2023/04/07 01:22:04;;;;;;;8.70;7.90;;;;;;;6.40;nan;98032.38;5035976;28;20329;-76
2023/04/07 01:24:58;;;;;;;8.47;7.67;;;;;;;6.35;nan;98022.41;5036986;28;20592;-76
2023/04/07 01:27:27;;;;;;;8.47;7.57;;;;;;;6.35;nan;98018.94;5036103;28;20204;-76
2023/04/07 01:29:55;;;;;;;9.00;8.10;;;;;;;6.43;nan;98026.72;5035973;28;20202;-76
2023/04/07 01:32:23;;;;;;;9.37;8.40;;;;;;;6.36;nan;98017.94;5018217;28;20229;-76
2023/04/07 01:34:52;;;;;;;9.10;8.23;;;;;;;6.37;nan;98016.91;5035911;28;20212;-76
2023/04/07 01:37:19;;;;;;;10.73;9.23;;;;;;;6.37;nan;98012.47;5018120;28;20210;-76
2023/04/07 01:39:45;;;;;;;10.27;7.97;;;;;;;6.49;nan;98018.00;5035865;28;20216;-76
2023/04/07 01:42:12;;;;;;;9.13;7.87;;;;;;;6.54;nan;98013.78;5035692;28;20238;-76
2023/04/07 01:44:40;;;;;;;9.87;8.23;;;;;;;6.50;nan;98011.72;5035723;28;20206;-76
2023/04/07 01:47:06;;;;;;;11.43;8.47;;;;;;;6.40;nan;98008.63;5035721;28;20586;-76
2023/04/07 01:49:35;;;;;;;8.30;7.50;;;;;;;6.41;nan;98004.97;5035648;28;20296;-76
2023/04/07 01:52:02;;;;;;;9.23;8.20;;;;;;;6.45;nan;98004.38;5035537;28;20624;-76
2023/04/07 01:54:29;;;;;;;9.07;7.90;;;;;;;6.44;nan;98005.41;5035244;28;20213;-76
2023/04/07 01:56:55;;;;;;;9.87;8.17;;;;;;;6.39;nan;97999.06;5035448;28;20206;-76
2023/04/07 01:59:22;;;;;;;8.47;7.60;;;;;;;6.41;nan;98003.16;5035472;28;20216;-76
2023/04/07 02:01:48;;;;;;;8.53;7.70;;;;;;;6.40;nan;98000.69;5035379;28;20222;-76
2023/04/07 02:04:20;;;;;;;8.77;7.87;;;;;;;6.36;nan;97997.63;5034915;28;20230;-76
2023/04/07 02:07:01;;;;;;;8.27;7.47;;;;;;;6.33;nan;98005.13;5017754;28;20201;-76
2023/04/07 02:09:31;;;;;;;9.13;7.97;;;;;;;6.38;nan;97998.25;5035884;28;20241;-76
2023/04/07 02:12:00;;;;;;;8.77;7.70;;;;;;;6.38;nan;97997.44;5035190;28;20210;-76
2023/04/07 02:14:28;;;;;;;8.30;7.50;;;;;;;6.39;nan;97996.44;5017797;28;20585;-76
2023/04/07 02:16:56;;;;;;;8.70;7.80;;;;;;;6.33;nan;97992.72;5034866;28;20206;-76
2023/04/07 02:19:22;;;;;;;8.63;7.50;;;;;;;6.40;nan;97984.84;5034855;28;20700;-76
2023/04/07 02:21:51;;;;;;;9.43;7.70;;;;;;;6.44;nan;97986.09;5035068;28;20609;-76
2023/04/07 02:24:20;;;;;;;8.70;7.77;;;;;;;6.45;nan;97983.28;5017470;28;20210;-76
2023/04/07 02:26:47;;;;;;;8.80;7.90;;;;;;;6.46;nan;97984.88;5034942;28;20280;-76
2023/04/07 02:29:14;;;;;;;9.33;7.90;;;;;;;6.40;nan;97976.94;5035687;28;20260;-76
2023/04/07 02:31:40;;;;;;;8.00;7.10;;;;;;;6.42;nan;97974.94;5034874;28;20264;-76
2023/04/07 02:34:07;;;;;;;9.80;8.07;;;;;;;6.49;nan;97979.22;5034340;28;20242;-76
2023/04/07 02:36:33;;;;;;;9.03;8.13;;;;;;;6.49;nan;97979.22;5034402;28;20210;-76
2023/04/07 02:38:59;;;;;;;9.43;8.20;;;;;;;6.51;nan;97973.75;5034731;28;20210;-76
2023/04/07 02:41:26;;;;;;;8.97;8.13;;;;;;;6.52;nan;97976.19;5034747;28;20214;-76
2023/04/07 02:43:52;;;;;;;9.07;8.10;;;;;;;6.44;nan;97967.63;5034327;28;20234;-76
2023/04/07 02:46:19;;;;;;;8.97;8.03;;;;;;;6.48;nan;97964.41;5034298;28;20293;-76
2023/04/07 02:48:45;;;;;;;8.87;7.97;;;;;;;6.44;nan;97957.06;5033901;28;20691;-76
2023/04/07 02:51:11;;;;;;;9.07;7.37;;;;;;;6.49;nan;97957.28;5033886;28;20688;-76
2023/04/07 02:53:38;;;;;;;9.37;8.40;;;;;;;6.41;nan;97960.06;5034245;28;20218;-77
2023/04/07 02:56:04;;;;;;;8.47;7.67;;;;;;;6.41;nan;97952.16;5034302;28;20232;-76
2023/04/07 02:58:31;;;;;;;9.47;8.30;;;;;;;6.51;nan;97952.63;5034085;28;20206;-76
2023/04/07 03:00:57;;;;;;;9.67;8.23;;;;;;;6.55;nan;97956.47;5033941;28;20216;-76
2023/04/07 03:03:23;;;;;;;8.83;7.53;;;;;;;6.45;nan;97950.75;5034026;28;20252;-77
2023/04/07 03:05:50;;;;;;;9.77;8.87;;;;;;;6.45;nan;97943.66;5034060;28;20212;-76
2023/04/07 03:08:16;;;;;;;8.33;7.27;;;;;;;6.41;nan;97944.22;5034029;28;20546;-77
2023/04/07 03:10:43;;;;;;;9.90;8.33;;;;;;;6.46;nan;97945.28;5034028;28;20202;-76
2023/04/07 03:13:11;;;;;;;9.47;8.47;;;;;;;6.45;nan;97943.66;5033471;28;20276;-76
2023/04/07 03:15:37;;;;;;;9.73;8.63;;;;;;;6.45;nan;97943.66;5033960;28;20212;-76
2023/04/07 03:18:04;;;;;;;9.87;7.90;;;;;;;6.44;nan;97936.75;5033670;28;20212;-76
2023/04/07 03:20:30;;;;;;;9.33;8.33;;;;;;;6.42;nan;97940.59;5033665;28;20687;-76
2023/04/07 03:22:57;;;;;;;9.00;8.10;;;;;;;6.44;nan;97939.41;5033401;28;20704;-77
2023/04/07 03:25:23;;;;;;;9.37;8.10;;;;;;;6.52;nan;97941.06;5033602;28;20210;-77
2023/04/07 03:27:49;;;;;;;9.53;8.57;;;;;;;6.55;nan;97941.47;5033538;28;20209;-76
2023/04/07 03:30:16;;;;;;;9.77;8.77;;;;;;;6.53;nan;97934.75;5033786;28;20260;-77
2023/04/07 03:32:42;;;;;;;8.67;7.60;;;;;;;6.48;nan;97935.34;5033709;28;20221;-77
2023/04/07 03:35:09;;;;;;;9.00;8.10;;;;;;;6.50;nan;97932.50;5033704;28;20216;-77
2023/04/07 03:37:35;;;;;;;9.83;8.60;;;;;;;6.50;nan;97925.41;5033625;28;20205;-77
2023/04/07 03:40:01;;;;;;;10.10;7.83;;;;;;;6.52;nan;97927.84;5033621;28;20212;-77
2023/04/07 03:42:28;;;;;;;9.67;8.30;;;;;;;6.53;nan;97927.66;5033111;28;20714;-77
2023/04/07 03:44:54;;;;;;;9.13;8.27;;;;;;;6.62;nan;97926.47;5033150;28;20680;-76
2023/04/07 03:47:21;;;;;;;12.90;8.87;;;;;;;6.58;nan;97927.06;5033237;28;20681;-76
2023/04/07 03:49:48;;;;;;;9.37;8.47;;;;;;;6.57;nan;97926.25;5033486;28;20210;-76
2023/04/07 03:52:14;;;;;;;9.93;8.73;;;;;;;6.63;nan;97928.09;5033069;28;20237;-76
2023/04/07 03:54:40;;;;;;;11.20;9.33;;;;;;;6.60;nan;97923.19;5033494;28;20206;-76
2023/04/07 03:57:07;;;;;;;9.50;8.50;;;;;;;6.58;nan;97922.59;5033422;28;20216;-76
2023/04/07 03:59:33;;;;;;;11.33;8.50;;;;;;;6.61;nan;97916.09;5015947;28;20202;-76
2023/04/07 04:01:59;;;;;;;9.80;8.80;;;;;;;6.59;nan;97920.75;5032289;28;20205;-76
2023/04/07 04:04:26;;;;;;;9.93;8.67;;;;;;;6.59;nan;97910.19;5033327;28;20212;-76
2023/04/07 04:06:52;;;;;;;8.83;7.90;;;;;;;6.58;nan;97911.22;5033229;28;20209;-76
2023/04/07 04:09:19;;;;;;;9.33;8.43;;;;;;;6.58;nan;97911.22;5033340;28;20209;-77
2023/04/07 04:11:46;;;;;;;11.40;8.40;;;;;;;6.56;nan;97910.59;5033202;28;20396;-76
2023/04/07 04:14:12;;;;;;;9.17;8.27;;;;;;;6.55;nan;97920.34;5033132;28;20222;-76
2023/04/07 04:16:38;;;;;;;8.73;7.83;;;;;;;6.60;nan;97911.84;5032808;28;20216;-76
2023/04/07 04:19:05;;;;;;;9.83;8.93;;;;;;;6.62;nan;97910.63;5033199;28;20213;-76
2023/04/07 04:21:31;;;;;;;10.53;9.50;;;;;;;6.63;nan;97909.59;5033159;28;20210;-76
2023/04/07 04:23:58;;;;;;;9.40;8.27;;;;;;;6.62;nan;97910.63;5032996;28;20232;-76
2023/04/07 04:26:24;;;;;;;9.67;8.60;;;;;;;6.62;nan;97907.16;5033263;28;20210;-76
2023/04/07 04:28:51;;;;;;;9.70;8.03;;;;;;;6.65;nan;97904.13;5033177;28;20213;-77
2023/04/07 04:31:18;;;;;;;10.03;8.70;;;;;;;6.60;nan;97906.56;5032914;28;20213;-76
2023/04/07 04:33:44;;;;;;;9.77;8.77;;;;;;;6.57;nan;97901.66;5032634;28;20233;-77
2023/04/07 04:36:11;;;;;;;9.60;8.60;;;;;;;6.54;nan;97899.41;5032644;28;20783;-76
2023/04/07 04:38:42;;;;;;;9.93;8.63;;;;;;;6.51;nan;97900.59;5033003;28;20233;-77
2023/04/07 04:41:08;;;;;;;10.10;9.10;;;;;;;6.55;nan;97899.22;5032965;28;20194;-76
2023/04/07 04:43:35;;;;;;;10.77;8.73;;;;;;;6.54;nan;97897.59;5032741;28;20240;-76
2023/04/07 04:46:01;;;;;;;10.10;9.10;;;;;;;6.52;nan;97904.88;5032920;28;20217;-76
2023/04/07 04:48:28;;;;;;;10.80;8.50;;;;;;;6.51;nan;97908.53;5033049;28;20275;-76
2023/04/07 04:50:54;;;;;;;10.07;9.07;;;;;;;6.48;nan;97910.75;5032931;28;20206;-76
2023/04/07 04:53:21;;;;;;;12.93;9.70;;;;;;;6.52;nan;97909.38;5032550;28;20226;-76
2023/04/07 04:55:50;;;;;;;10.73;9.60;;;;;;;6.51;nan;97908.53;5032693;28;20210;-76
2023/04/07 04:58:18;;;;;;;10.27;9.20;;;;;;;6.53;nan;97900.41;5032642;28;20685;-76
2023/04/07 05:00:44;;;;;;;10.37;8.80;;;;;;;6.51;nan;97903.25;5032455;28;20688;-76
2023/04/07 05:03:11;;;;;;;9.80;8.83;;;;;;;6.51;nan;97903.25;5032478;28;20602;-76
2023/04/07 05:05:37;;;;;;;10.20;9.13;;;;;;;6.54;nan;97905.50;5032707;28;20210;-76
2023/04/07 05:08:04;;;;;;;10.30;9.20;;;;;;;6.53;nan;97913.63;5032337;28;20691;-76
2023/04/07 05:10:30;;;;;;;10.90;9.80;;;;;;;6.52;nan;97909.38;5032767;28;20208;-76
2023/04/07 05:12:56;;;;;;;11.23;9.43;;;;;;;6.50;nan;97912.19;5034156;28;20221;-76
2023/04/07 05:15:23;;;;;;;10.37;9.20;;;;;;;6.45;nan;97905.88;5036202;28;20213;-76
2023/04/07 05:17:49;;;;;;;10.97;9.70;;;;;;;6.46;nan;97910.13;5036303;28;20202;-76
2023/04/07 05:20:16;;;;;;;11.03;9.30;;;;;;;6.46;nan;97910.94;5036199;28;20283;-76
2023/04/07 05:22:42;;;;;;;10.77;9.67;;;;;;;6.49;nan;97915.84;5035960;28;20253;-76
2023/04/07 05:25:09;;;;;;;10.27;8.77;;;;;;;6.50;nan;97909.56;5036049;28;20221;-77
2023/04/07 05:27:35;;;;;;;10.20;9.20;;;;;;;6.53;nan;97918.91;5035856;28;20690;-76
2023/04/07 05:30:02;;;;;;;10.63;9.53;;;;;;;6.47;nan;97915.22;5035763;28;20688;-76
2023/04/07 05:32:29;;;;;;;10.80;9.70;;;;;;;6.54;nan;97916.06;5035563;28;20237;-76
2023/04/07 05:34:55;;;;;;;11.00;9.90;;;;;;;6.59;nan;97908.38;5036027;28;20205;-76
2023/04/07 05:37:22;;;;;;;11.30;10.20;;;;;;;6.60;nan;97915.28;5036173;28;20206;-76
2023/04/07 05:39:48;;;;;;;11.63;10.00;;;;;;;6.68;nan;97911.66;5035493;28;20213;-76
2023/04/07 05:42:14;;;;;;;11.43;10.23;;;;;;;6.64;nan;97913.88;5035710;28;20229;-76
2023/04/07 05:44:41;;;;;;;11.90;10.70;;;;;;;6.70;nan;97912.28;5035624;28;20230;-76
2023/04/07 05:47:07;;;;;;;10.87;9.77;;;;;;;6.79;nan;97911.88;5035734;28;20212;-76
2023/04/07 05:49:44;;;;;;;10.90;9.80;;;;;;;6.81;nan;97909.88;5036502;28;20213;-76
2023/04/07 05:52:10;;;;;;;11.17;9.80;;;;;;;6.81;nan;97906.41;5035594;28;20190;-76
2023/04/07 05:54:38;;;;;;;10.93;9.83;;;;;;;6.81;nan;97909.88;5035567;28;20205;-76
2023/04/07 05:57:04;;;;;;;10.97;9.87;;;;;;;6.90;nan;97915.78;5035520;28;20230;-76
2023/04/07 05:59:30;;;;;;;10.63;9.53;;;;;;;6.91;nan;97918.22;5035483;28;20206;-76
2023/04/07 06:01:57;;;;;;;10.17;9.13;;;;;;;6.93;nan;97923.31;5035175;28;20208;-76
2023/04/07 06:04:23;;;;;;;11.73;9.87;;;;;;;6.95;nan;97918.63;5034893;28;20229;-76
2023/04/07 06:06:51;;;;;;;10.77;9.07;;;;;;;6.91;nan;97915.59;5034938;28;20210;-76
2023/04/07 06:09:17;;;;;;;12.23;9.80;;;;;;;6.96;nan;97915.81;5034891;28;20665;-76
2023/04/07 06:11:45;;;;;;;13.00;10.10;;;;;;;7.01;nan;97918.66;5035182;28;20220;-76
2023/04/07 06:14:12;;;;;;;10.57;9.57;;;;;;;7.05;nan;97921.72;5035143;28;20222;-76
2023/04/07 06:16:38;;;;;;;9.50;8.60;;;;;;;7.06;nan;97920.72;5034834;28;20657;-76
2023/04/07 06:19:06;;;;;;;10.13;9.07;;;;;;;7.09;nan;97918.47;5034977;28;20205;-76
2023/04/07 06:21:33;;;;;;;9.93;8.90;;;;;;;7.13;nan;97926.81;5034973;28;20249;-76
2023/04/07 06:24:00;;;;;;;10.10;9.10;;;;;;;7.17;nan;97928.06;5033967;28;20236;-76
2023/04/07 06:26:27;;;;;;;11.10;8.97;;;;;;;7.20;nan;97925.00;5034988;28;20208;-76
2023/04/07 06:28:53;;;;;;;11.10;9.30;;;;;;;7.24;nan;97929.69;5034639;28;20665;-76
2023/04/07 06:31:19;;;;;;;11.30;9.17;;;;;;;7.28;nan;97925.63;5034916;28;20212;-76
2023/04/07 06:33:46;;;;;;;9.30;8.40;;;;;;;7.34;nan;97924.81;5034326;28;20225;-76
2023/04/07 06:36:12;;;;;;;10.10;8.67;;;;;;;7.34;nan;97927.47;5034318;28;20683;-76
2023/04/07 06:38:40;;;;;;;10.30;9.30;;;;;;;7.37;nan;97926.28;5034700;28;20205;-76
2023/04/07 06:41:07;;;;;;;9.30;8.40;;;;;;;7.37;nan;97932.34;5034597;28;20202;-76
2023/04/07 06:43:33;;;;;;;10.03;8.97;;;;;;;7.41;nan;97924.81;5034348;28;20226;-76
2023/04/07 06:46:00;;;;;;;9.73;8.67;;;;;;;7.43;nan;97926.25;5034305;28;20545;-76
2023/04/07 06:48:26;;;;;;;9.93;8.70;;;;;;;7.43;nan;97923.59;5034469;28;20206;-76
2023/04/07 06:50:53;;;;;;;9.00;8.10;;;;;;;7.53;nan;97924.03;5034093;28;20236;-76
2023/04/07 06:53:19;;;;;;;10.63;9.10;;;;;;;7.51;nan;97927.91;5034011;28;20226;-76
2023/04/07 06:55:45;;;;;;;10.27;8.67;;;;;;;7.57;nan;97922.63;5034027;28;20206;-75
2023/04/07 06:58:12;;;;;;;9.30;8.40;;;;;;;7.59;nan;97920.56;5034379;28;20306;-75
2023/04/07 07:00:38;;;;;;;9.33;8.53;;;;;;;7.66;nan;97925.88;5034167;28;20210;-75
2023/04/07 07:03:05;;;;;;;9.47;8.47;;;;;;;7.90;nan;97925.25;5033856;28;20234;-75
2023/04/07 07:05:31;;;;;;;9.87;8.87;;;;;;;7.77;nan;97923.44;5034194;28;20201;-75
2023/04/07 07:07:58;;;;;;;10.23;8.60;;;;;;;7.73;nan;97918.72;5034109;28;20216;-75
2023/04/07 07:10:24;;;;;;;9.00;8.10;;;;;;;7.71;nan;97918.97;5033968;28;20208;-75
2023/04/07 07:12:51;;;;;;;9.57;8.20;;;;;;;7.72;nan;97922.41;5033897;28;20225;-75
2023/04/07 07:15:18;;;;;;;9.23;8.23;;;;;;;7.72;nan;97915.28;5033950;28;20209;-75
2023/04/07 07:17:44;;;;;;;10.07;9.07;;;;;;;7.79;nan;97926.66;5034638;28;20213;-75
2023/04/07 07:20:11;;;;;;;9.50;8.47;;;;;;;7.83;nan;97916.50;5033802;28;20213;-75
2023/04/07 07:22:37;;;;;;;10.13;8.53;;;;;;;7.88;nan;97917.50;5033242;28;20226;-75
2023/04/07 07:25:04;;;;;;;8.83;7.93;;;;;;;7.88;nan;97925.44;5033584;28;20226;-75
2023/04/07 07:27:30;;;;;;;9.43;8.53;;;;;;;7.83;nan;97919.16;5033625;28;20201;-75
2023/04/07 07:29:56;;;;;;;9.87;8.87;;;;;;;7.91;nan;97916.28;5033947;28;20217;-75
2023/04/07 07:32:23;;;;;;;9.73;8.73;;;;;;;7.93;nan;97922.19;5033725;28;20226;-75
2023/04/07 07:34:49;;;;;;;9.00;8.10;;;;;;;7.98;nan;97925.88;5033324;28;20206;-75
2023/04/07 07:37:16;;;;;;;9.83;8.83;;;;;;;8.02;nan;97920.97;5034083;28;20216;-75
2023/04/07 07:39:42;;;;;;;9.43;7.73;;;;;;;7.99;nan;97927.47;5033517;28;20275;-75
2023/04/07 07:42:09;;;;;;;10.07;9.03;;;;;;;8.01;nan;97929.94;5033444;28;20212;-75
2023/04/07 07:44:35;;;;;;;10.27;8.03;;;;;;;8.05;nan;97939.88;5033395;28;20217;-75
2023/04/07 07:47:01;;;;;;;8.97;8.13;;;;;;;8.18;nan;97933.75;5033222;28;20216;-75
2023/04/07 07:49:28;;;;;;;9.27;8.37;;;;;;;8.10;nan;97928.69;5033515;28;20206;-75
2023/04/07 07:51:54;;;;;;;9.03;8.10;;;;;;;7.95;nan;97941.31;5033115;28;20202;-73
2023/04/07 07:54:21;;;;;;;9.13;8.10;;;;;;;7.98;nan;97936.44;5033033;28;20748;-72
2023/04/07 07:56:47;;;;;;;8.53;7.73;;;;;;;8.07;nan;97937.03;5033394;28;20209;-73
2023/04/07 07:59:13;;;;;;;9.70;8.70;;;;;;;8.26;nan;97930.91;5033320;28;20213;-73
2023/04/07 08:01:40;;;;;;;9.90;8.40;;;;;;;8.51;nan;97931.88;5033249;28;20221;-73
2023/04/07 08:04:06;;;;;;;9.57;8.57;;;;;;;8.83;nan;97923.00;5032718;28;20230;-73
2023/04/07 08:06:32;;;;;;;10.50;8.73;;;;;;;8.86;nan;97930.50;5033253;28;20206;-73
2023/04/07 08:08:59;;;;;;;10.03;8.90;;;;;;;9.15;nan;97935.28;5032897;28;20684;-73
2023/04/07 08:11:25;;;;;;;9.10;8.13;;;;;;;9.41;nan;97935.13;5033235;28;20206;-73
2023/04/07 08:13:52;;;;;;;9.37;8.47;;;;;;;9.62;nan;97934.75;5033230;28;20225;-73
2023/04/07 08:16:19;;;;;;;8.53;7.70;;;;;;;9.60;nan;97934.97;5033095;28;20205;-73
2023/04/07 08:18:46;;;;;;;9.13;8.30;;;;;;;9.76;nan;97938.91;5033235;28;20283;-73
2023/04/07 08:21:12;;;;;;;8.27;7.57;;;;;;;10.07;nan;97944.22;5033133;28;20202;-73
2023/04/07 08:23:39;;;;;;;8.50;7.70;;;;;;;10.10;nan;97943.78;5032887;28;20234;-73
2023/04/07 08:26:05;;;;;;;8.50;7.60;;;;;;;9.95;nan;97945.91;5032874;28;20213;-73
2023/04/07 08:28:31;;;;;;;9.40;8.43;;;;;;;9.66;nan;97954.53;5032845;28;20213;-73
2023/04/07 08:30:58;;;;;;;8.43;7.50;;;;;;;9.60;nan;97952.75;5032764;28;20210;-73
2023/04/07 08:33:26;;;;;;;9.20;7.97;;;;;;;9.31;nan;97946.19;5032897;28;20232;-73
2023/04/07 08:35:52;;;;;;;8.10;7.30;;;;;;;9.36;nan;97949.00;5032653;28;20209;-73
2023/04/07 08:38:18;;;;;;;8.00;6.87;;;;;;;9.85;nan;97953.56;5032672;28;20206;-73
2023/04/07 08:40:46;;;;;;;9.10;6.80;;;;;;;9.64;nan;97951.28;5033333;28;20852;-73
2023/04/07 08:43:14;;;;;;;7.40;6.70;;;;;;;9.52;nan;97953.00;5032973;28;20277;-73
2023/04/07 08:45:41;;;;;;;7.80;7.00;;;;;;;9.48;nan;97946.47;5032496;28;20212;-73
2023/04/07 08:48:18;;;;;;;7.37;6.43;;;;;;;10.00;nan;97949.53;5034689;28;20209;-73
2023/04/07 08:50:45;;;;;;;6.73;6.10;;;;;;;10.07;nan;97946.88;5036153;28;20701;-75
2023/04/07 08:53:14;;;;;;;7.13;6.37;;;;;;;10.19;nan;97953.88;5036416;28;20279;-75
2023/04/07 08:55:41;;;;;;;6.80;6.10;;;;;;;10.27;nan;97953.63;5036417;28;20305;-75
2023/04/07 08:58:11;;;;;;;7.97;7.30;;;;;;;10.16;nan;97948.22;5036538;28;20206;-75
2023/04/07 09:00:40;;;;;;;7.80;6.57;;;;;;;9.93;nan;97951.47;5036400;28;20210;-75
2023/04/07 09:03:08;;;;;;;6.80;6.10;;;;;;;10.05;nan;97947.06;5035885;28;20287;-75
2023/04/07 09:05:35;;;;;;;7.90;6.43;;;;;;;10.54;nan;97947.00;5036127;28;20236;-75
2023/04/07 09:08:02;;;;;;;7.77;7.03;;;;;;;10.14;nan;97952.94;5018644;28;20576;-75
2023/04/07 09:10:29;;;;;;;8.70;5.90;;;;;;;10.25;nan;97954.88;5036221;28;20206;-75
2023/04/07 09:12:55;;;;;;;6.90;6.10;;;;;;;10.58;nan;97950.03;5036233;28;20257;-75
2023/04/07 09:15:22;;;;;;;6.63;5.63;;;;;;;10.80;nan;97960.00;5035697;28;20561;-75
2023/04/07 09:17:48;;;;;;;7.27;5.40;;;;;;;10.73;nan;97961.13;5036149;28;20202;-75
2023/04/07 09:20:15;;;;;;;7.50;6.13;;;;;;;10.87;nan;97959.94;5035846;28;20210;-75
2023/04/07 09:22:44;;;;;;;6.10;5.53;;;;;;;10.95;nan;97956.97;5035770;28;20222;-75
2023/04/07 09:25:26;;;;;;;6.17;5.33;;;;;;;10.81;nan;97952.81;5035946;28;20672;-75
2023/04/07 09:27:55;;;;;;;7.17;5.20;;;;;;;10.34;nan;97953.56;5035465;28;20210;-75
2023/04/07 09:30:21;;;;;;;5.83;5.10;;;;;;;10.78;nan;97950.63;5035838;28;20209;-75
2023/04/07 09:32:48;;;;;;;5.40;4.73;;;;;;;10.83;nan;97948.94;5035828;28;20254;-75
2023/04/07 09:35:14;;;;;;;6.53;4.90;;;;;;;10.20;nan;97952.88;5035726;28;20198;-75
2023/04/07 09:37:41;;;;;;;6.93;5.07;;;;;;;10.20;nan;97958.19;5035779;28;20209;-75
2023/04/07 09:40:08;;;;;;;8.13;5.73;;;;;;;10.68;nan;97956.44;5035518;28;20213;-75
2023/04/07 09:42:37;;;;;;;7.57;5.67;;;;;;;11.01;nan;97958.72;5035426;28;20232;-75
2023/04/07 09:45:04;;;;;;;5.37;4.87;;;;;;;11.14;nan;97950.59;5035429;28;20221;-75
2023/04/07 09:47:32;;;;;;;6.20;5.20;;;;;;;11.75;nan;97953.81;5035523;28;20296;-75
2023/04/07 09:50:05;;;;;;;7.03;4.80;;;;;;;11.79;nan;97949.66;5035491;28;20210;-75
2023/04/07 09:52:53;;;;;;;5.70;5.07;;;;;;;11.54;nan;97954.31;5034928;28;20324;-75
2023/04/07 09:55:21;;;;;;;5.97;5.27;;;;;;;11.52;nan;97952.94;5035733;28;20206;-75
2023/04/07 09:57:50;;;;;;;7.00;5.50;;;;;;;11.85;nan;97954.06;5035389;28;20206;-75
2023/04/07 10:00:16;;;;;;;5.87;5.00;;;;;;;11.93;nan;97955.59;5033908;28;20228;-75
2023/04/07 10:02:43;;;;;;;8.73;5.90;;;;;;;11.44;nan;97950.59;5034751;28;20237;-75
2023/04/07 10:05:12;;;;;;;5.60;5.10;;;;;;;11.73;nan;97957.75;5034868;28;20233;-75
2023/04/07 10:07:38;;;;;;;7.67;6.07;;;;;;;11.67;nan;97959.47;5034737;28;20642;-75
2023/04/07 10:10:07;;;;;;;6.83;5.90;;;;;;;11.53;nan;97952.69;5035151;28;20576;-75
2023/04/07 10:12:34;;;;;;;5.37;4.87;;;;;;;11.76;nan;97960.75;5035048;28;20265;-75
2023/04/07 10:15:01;;;;;;;6.43;5.27;;;;;;;11.72;nan;97948.97;5034941;28;20225;-75
2023/04/07 10:17:28;;;;;;;6.57;5.57;;;;;;;11.37;nan;97950.69;5034999;28;20202;-75
2023/04/07 10:19:58;;;;;;;7.00;5.60;;;;;;;11.49;nan;97948.84;5034408;28;20215;-75
2023/04/07 10:22:27;;;;;;;7.30;5.90;;;;;;;11.54;nan;97950.84;5034743;28;20229;-75
2023/04/07 10:24:59;;;;;;;6.00;5.43;;;;;;;11.37;nan;97952.50;5034253;28;20228;-75
2023/04/07 10:27:59;;;;;;;7.10;5.47;;;;;;;11.10;nan;97952.84;5034799;28;20193;-75
2023/04/07 10:30:29;;;;;;;6.53;5.83;;;;;;;10.98;nan;97953.84;5008181;28;20212;-75
2023/04/07 10:32:56;;;;;;;6.30;5.70;;;;;;;11.38;nan;97954.97;5034456;28;20254;-75
2023/04/07 10:35:23;;;;;;;6.40;5.63;;;;;;;11.77;nan;97954.41;5034669;28;20285;-75
2023/04/07 10:38:09;;;;;;;8.40;5.73;;;;;;;12.12;nan;97949.13;5034536;28;20213;-75
2023/04/07 10:40:36;;;;;;;7.30;5.63;;;;;;;11.80;nan;97953.94;5034960;28;20210;-75
2023/04/07 10:43:08;;;;;;;5.83;5.23;;;;;;;11.72;nan;97951.63;5034449;28;20226;-75
2023/04/07 10:45:50;;;;;;;6.43;5.60;;;;;;;11.50;nan;97947.84;5034314;28;20214;-75
2023/04/07 10:48:18;;;;;;;6.43;5.40;;;;;;;11.39;nan;97945.94;5034424;28;20256;-75
2023/04/07 10:51:04;;;;;;;6.30;5.70;;;;;;;11.71;nan;97952.63;5034706;28;20206;-75
2023/04/07 10:53:31;;;;;;;8.10;5.30;;;;;;;12.29;nan;97944.72;5033448;28;20236;-75
2023/04/07 10:55:58;;;;;;;6.77;5.83;;;;;;;12.70;nan;97933.91;5034192;28;20201;-75
2023/04/07 10:58:25;;;;;;;5.87;5.13;;;;;;;12.85;nan;97943.00;5034062;28;20303;-75
2023/04/07 11:01:03;;;;;;;5.57;5.07;;;;;;;12.83;nan;97936.28;5033621;28;20215;-76
2023/04/07 11:03:32;;;;;;;5.83;5.23;;;;;;;12.33;nan;97952.03;5033427;28;20235;-75
2023/04/07 11:06:04;;;;;;;6.33;5.50;;;;;;;12.29;nan;97944.72;5033761;28;20228;-75
2023/04/07 11:08:42;;;;;;;7.53;5.00;;;;;;;12.51;nan;97953.75;5033273;28;20216;-75
2023/04/07 11:11:11;;;;;;;6.17;5.07;;;;;;;12.40;nan;97952.72;5033541;28;20205;-75
2023/04/07 11:13:48;;;;;;;8.87;5.07;;;;;;;12.05;nan;97956.41;5033696;28;20233;-75
2023/04/07 11:16:19;;;;;;;4.97;4.57;;;;;;;11.79;nan;97960.31;5033307;28;20190;-75
2023/04/07 11:18:47;;;;;;;6.07;4.93;;;;;;;11.75;nan;97948.50;5033649;28;20209;-75
2023/04/07 11:21:18;;;;;;;5.40;4.40;;;;;;;11.99;nan;97950.16;5033570;28;20256;-75
2023/04/07 11:23:46;;;;;;;5.57;4.47;;;;;;;11.85;nan;97951.41;5033319;28;20232;-75
2023/04/07 11:26:14;;;;;;;5.17;4.30;;;;;;;11.83;nan;97955.34;5033495;28;20233;-75
2023/04/07 11:28:47;;;;;;;6.40;4.40;;;;;;;11.54;nan;97951.66;5033536;28;20228;-75
2023/04/07 11:31:25;;;;;;;7.37;4.87;;;;;;;11.64;nan;97948.47;5034297;28;20210;-75
2023/04/07 11:34:03;;;;;;;6.47;4.50;;;;;;;11.37;nan;97956.00;5033102;28;20694;-75
2023/04/07 11:36:40;;;;;;;6.57;4.37;;;;;;;11.22;nan;97958.25;5033563;28;20193;-72
2023/04/07 11:39:18;;;;;;;6.70;5.10;;;;;;;11.15;nan;97962.84;5033078;28;20201;-74
2023/04/07 11:41:49;;;;;;;5.73;4.87;;;;;;;10.87;nan;97960.72;5033113;28;20559;-75
2023/04/07 11:44:16;;;;;;;5.70;4.90;;;;;;;10.79;nan;97973.53;5032749;28;20611;-75
2023/04/07 11:47:02;;;;;;;5.13;4.57;;;;;;;10.91;nan;97967.22;5032760;28;20212;-75
2023/04/07 11:49:28;;;;;;;6.73;4.73;;;;;;;10.93;nan;97975.00;5032941;28;20699;-75
2023/04/07 11:52:01;;;;;;;6.20;4.43;;;;;;;11.00;nan;97978.41;5033209;28;20292;-75
2023/04/07 11:54:38;;;;;;;5.77;4.63;;;;;;;11.03;nan;97983.25;5033466;28;20204;-74
2023/04/07 11:57:04;;;;;;;6.83;4.57;;;;;;;10.83;nan;97986.16;5033239;28;20201;-75
2023/04/07 11:59:31;;;;;;;6.67;5.13;;;;;;;10.77;nan;97986.25;5032954;28;20209;-75